sensor_id;sensor_type;location;lat;lon;timestamp;P1;durP1;ratioP1;P2;durP2;ratioP2
63653;SDS011;49809;47.418;19.080;2023-04-28T00:03:01;7.82;;;3.58;;
63653;SDS011;49809;47.418;19.080;2023-04-28T00:06:19;5.55;;;3.47;;
63653;SDS011;49809;47.418;19.080;2023-04-28T00:09:54;8.13;;;3.30;;
63653;SDS011;49809;47.418;19.080;2023-04-28T00:13:14;9.82;;;3.87;;
63653;SDS011;49809;47.418;19.080;2023-04-28T00:16:33;5.97;;;3.67;;
63653;SDS011;49809;47.418;19.080;2023-04-28T00:20:02;7.10;;;3.28;;
63653;SDS011;49809;47.418;19.080;2023-04-28T00:23:34;9.73;;;3.60;;
63653;SDS011;49809;47.418;19.080;2023-04-28T00:26:52;7.47;;;4.22;;
63653;SDS011;49809;47.418;19.080;2023-04-28T00:30:23;4.05;;;2.85;;
63653;SDS011;49809;47.418;19.080;2023-04-28T00:33:42;4.72;;;3.17;;
63653;SDS011;49809;47.418;19.080;2023-04-28T00:37:09;9.95;;;5.05;;
63653;SDS011;49809;47.418;19.080;2023-04-28T00:40:37;6.95;;;3.87;;
63653;SDS011;49809;47.418;19.080;2023-04-28T00:43:55;4.93;;;3.67;;
63653;SDS011;49809;47.418;19.080;2023-04-28T00:54:41;7.65;;;3.15;;
63653;SDS011;49809;47.418;19.080;2023-04-28T00:58:16;8.77;;;4.20;;
63653;SDS011;49809;47.418;19.080;2023-04-28T01:02:00;7.28;;;3.28;;
63653;SDS011;49809;47.418;19.080;2023-04-28T01:05:32;7.70;;;3.67;;
63653;SDS011;49809;47.418;19.080;2023-04-28T01:08:54;9.65;;;4.32;;
63653;SDS011;49809;47.418;19.080;2023-04-28T01:12:14;3.90;;;3.25;;
63653;SDS011;49809;47.418;19.080;2023-04-28T01:15:35;8.13;;;4.05;;
63653;SDS011;49809;47.418;19.080;2023-04-28T01:19:12;6.93;;;3.00;;
63653;SDS011;49809;47.418;19.080;2023-04-28T01:22:38;6.78;;;3.67;;
63653;SDS011;49809;47.418;19.080;2023-04-28T01:26:12;9.32;;;3.42;;
63653;SDS011;49809;47.418;19.080;2023-04-28T01:29:30;5.03;;;3.28;;
63653;SDS011;49809;47.418;19.080;2023-04-28T01:32:59;6.82;;;3.62;;
63653;SDS011;49809;47.418;19.080;2023-04-28T01:36:20;11.88;;;3.85;;
63653;SDS011;49809;47.418;19.080;2023-04-28T01:39:45;6.35;;;3.83;;
63653;SDS011;49809;47.418;19.080;2023-04-28T01:43:20;6.12;;;3.58;;
63653;SDS011;49809;47.418;19.080;2023-04-28T01:46:51;5.25;;;3.10;;
63653;SDS011;49809;47.418;19.080;2023-04-28T01:50:24;6.75;;;3.92;;
63653;SDS011;49809;47.418;19.080;2023-04-28T01:53:59;7.43;;;3.17;;
63653;SDS011;49809;47.418;19.080;2023-04-28T01:57:17;5.97;;;2.70;;
63653;SDS011;49809;47.418;19.080;2023-04-28T02:00:44;6.53;;;2.85;;
63653;SDS011;49809;47.418;19.080;2023-04-28T02:04:02;6.07;;;3.80;;
63653;SDS011;49809;47.418;19.080;2023-04-28T02:07:33;6.03;;;2.22;;
63653;SDS011;49809;47.418;19.080;2023-04-28T02:11:09;5.47;;;3.28;;
63653;SDS011;49809;47.418;19.080;2023-04-28T02:14:42;6.25;;;3.05;;
63653;SDS011;49809;47.418;19.080;2023-04-28T02:18:17;4.97;;;3.17;;
63653;SDS011;49809;47.418;19.080;2023-04-28T02:21:36;4.97;;;2.65;;
63653;SDS011;49809;47.418;19.080;2023-04-28T02:25:00;4.87;;;3.33;;
63653;SDS011;49809;47.418;19.080;2023-04-28T02:28:18;4.03;;;2.90;;
63653;SDS011;49809;47.418;19.080;2023-04-28T02:31:47;8.43;;;3.58;;
63653;SDS011;49809;47.418;19.080;2023-04-28T02:35:21;4.35;;;2.42;;
63653;SDS011;49809;47.418;19.080;2023-04-28T02:38:45;5.18;;;3.75;;
63653;SDS011;49809;47.418;19.080;2023-04-28T02:42:07;6.72;;;2.55;;
63653;SDS011;49809;47.418;19.080;2023-04-28T02:45:46;4.15;;;2.72;;
63653;SDS011;49809;47.418;19.080;2023-04-28T02:49:14;7.22;;;2.78;;
63653;SDS011;49809;47.418;19.080;2023-04-28T02:52:41;3.35;;;2.55;;
63653;SDS011;49809;47.418;19.080;2023-04-28T02:56:16;3.58;;;2.28;;
63653;SDS011;49809;47.418;19.080;2023-04-28T02:59:50;3.62;;;2.78;;
63653;SDS011;49809;47.418;19.080;2023-04-28T03:03:08;6.50;;;2.97;;
63653;SDS011;49809;47.418;19.080;2023-04-28T03:06:32;5.12;;;3.42;;
63653;SDS011;49809;47.418;19.080;2023-04-28T03:09:54;5.82;;;2.80;;
63653;SDS011;49809;47.418;19.080;2023-04-28T03:13:15;4.12;;;2.35;;
63653;SDS011;49809;47.418;19.080;2023-04-28T03:16:44;6.47;;;3.08;;
63653;SDS011;49809;47.418;19.080;2023-04-28T03:20:13;12.63;;;3.72;;
63653;SDS011;49809;47.418;19.080;2023-04-28T03:23:48;4.55;;;2.65;;
63653;SDS011;49809;47.418;19.080;2023-04-28T03:27:17;3.40;;;2.35;;
63653;SDS011;49809;47.418;19.080;2023-04-28T03:30:50;4.82;;;3.28;;
63653;SDS011;49809;47.418;19.080;2023-04-28T03:34:11;3.78;;;2.58;;
63653;SDS011;49809;47.418;19.080;2023-04-28T03:37:39;5.53;;;3.45;;
63653;SDS011;49809;47.418;19.080;2023-04-28T03:41:03;3.22;;;2.40;;
63653;SDS011;49809;47.418;19.080;2023-04-28T03:44:37;6.57;;;3.62;;
63653;SDS011;49809;47.418;19.080;2023-04-28T03:48:10;7.97;;;3.25;;
63653;SDS011;49809;47.418;19.080;2023-04-28T03:51:42;4.10;;;2.47;;
63653;SDS011;49809;47.418;19.080;2023-04-28T03:55:12;4.70;;;2.67;;
63653;SDS011;49809;47.418;19.080;2023-04-28T03:58:43;7.50;;;3.53;;
63653;SDS011;49809;47.418;19.080;2023-04-28T04:05:45;4.78;;;2.78;;
63653;SDS011;49809;47.418;19.080;2023-04-28T04:09:14;7.68;;;3.58;;
63653;SDS011;49809;47.418;19.080;2023-04-28T04:12:43;3.90;;;2.75;;
63653;SDS011;49809;47.418;19.080;2023-04-28T04:16:11;8.45;;;4.07;;
63653;SDS011;49809;47.418;19.080;2023-04-28T04:19:47;4.97;;;3.50;;
63653;SDS011;49809;47.418;19.080;2023-04-28T04:23:24;11.75;;;4.15;;
63653;SDS011;49809;47.418;19.080;2023-04-28T04:27:02;5.53;;;3.47;;
63653;SDS011;49809;47.418;19.080;2023-04-28T04:30:37;7.55;;;4.12;;
63653;SDS011;49809;47.418;19.080;2023-04-28T04:34:16;9.30;;;3.83;;
63653;SDS011;49809;47.418;19.080;2023-04-28T04:37:52;6.70;;;3.65;;
63653;SDS011;49809;47.418;19.080;2023-04-28T04:41:26;11.95;;;3.80;;
63653;SDS011;49809;47.418;19.080;2023-04-28T04:44:44;7.10;;;4.12;;
63653;SDS011;49809;47.418;19.080;2023-04-28T04:48:01;8.25;;;5.10;;
63653;SDS011;49809;47.418;19.080;2023-04-28T04:51:19;10.60;;;4.03;;
63653;SDS011;49809;47.418;19.080;2023-04-28T04:54:41;13.10;;;4.43;;
63653;SDS011;49809;47.418;19.080;2023-04-28T04:58:09;6.10;;;3.65;;
63653;SDS011;49809;47.418;19.080;2023-04-28T05:01:44;5.72;;;3.90;;
63653;SDS011;49809;47.418;19.080;2023-04-28T05:05:12;6.15;;;3.50;;
63653;SDS011;49809;47.418;19.080;2023-04-28T05:08:38;9.10;;;3.78;;
63653;SDS011;49809;47.418;19.080;2023-04-28T05:12:08;7.95;;;4.43;;
63653;SDS011;49809;47.418;19.080;2023-04-28T05:15:37;9.20;;;4.90;;
63653;SDS011;49809;47.418;19.080;2023-04-28T05:19:09;9.75;;;4.72;;
63653;SDS011;49809;47.418;19.080;2023-04-28T05:22:46;14.50;;;4.80;;
63653;SDS011;49809;47.418;19.080;2023-04-28T05:26:57;10.20;;;4.37;;
63653;SDS011;49809;47.418;19.080;2023-04-28T05:30:18;8.10;;;4.68;;
63653;SDS011;49809;47.418;19.080;2023-04-28T05:33:45;6.07;;;4.12;;
63653;SDS011;49809;47.418;19.080;2023-04-28T05:37:12;8.77;;;4.55;;
63653;SDS011;49809;47.418;19.080;2023-04-28T05:40:44;7.15;;;3.60;;
63653;SDS011;49809;47.418;19.080;2023-04-28T05:44:02;6.57;;;3.78;;
63653;SDS011;49809;47.418;19.080;2023-04-28T05:47:11;8.63;;;5.05;;
63653;SDS011;49809;47.418;19.080;2023-04-28T05:50:39;9.00;;;3.62;;
63653;SDS011;49809;47.418;19.080;2023-04-28T05:54:05;7.22;;;4.22;;
63653;SDS011;49809;47.418;19.080;2023-04-28T05:57:19;8.95;;;4.18;;
63653;SDS011;49809;47.418;19.080;2023-04-28T06:00:24;12.30;;;4.57;;
63653;SDS011;49809;47.418;19.080;2023-04-28T06:03:29;4.87;;;3.67;;
63653;SDS011;49809;47.418;19.080;2023-04-28T06:07:07;6.47;;;4.12;;
63653;SDS011;49809;47.418;19.080;2023-04-28T06:10:12;7.40;;;4.03;;
63653;SDS011;49809;47.418;19.080;2023-04-28T06:13:38;9.48;;;5.00;;
63653;SDS011;49809;47.418;19.080;2023-04-28T06:17:15;13.27;;;4.00;;
63653;SDS011;49809;47.418;19.080;2023-04-28T06:20:23;11.07;;;4.82;;
63653;SDS011;49809;47.418;19.080;2023-04-28T06:23:48;7.43;;;3.78;;
63653;SDS011;49809;47.418;19.080;2023-04-28T06:30:16;8.40;;;3.83;;
63653;SDS011;49809;47.418;19.080;2023-04-28T06:33:47;8.52;;;4.65;;
63653;SDS011;49809;47.418;19.080;2023-04-28T06:37:19;6.00;;;3.72;;
63653;SDS011;49809;47.418;19.080;2023-04-28T06:40:23;10.75;;;4.82;;
63653;SDS011;49809;47.418;19.080;2023-04-28T06:43:52;8.82;;;4.72;;
63653;SDS011;49809;47.418;19.080;2023-04-28T06:47:11;12.95;;;5.05;;
63653;SDS011;49809;47.418;19.080;2023-04-28T06:50:29;10.48;;;5.10;;
63653;SDS011;49809;47.418;19.080;2023-04-28T06:53:40;8.52;;;4.90;;
63653;SDS011;49809;47.418;19.080;2023-04-28T06:56:47;10.63;;;4.20;;
63653;SDS011;49809;47.418;19.080;2023-04-28T07:00:05;9.15;;;4.57;;
63653;SDS011;49809;47.418;19.080;2023-04-28T07:03:25;7.65;;;4.55;;
63653;SDS011;49809;47.418;19.080;2023-04-28T07:06:46;9.60;;;4.62;;
63653;SDS011;49809;47.418;19.080;2023-04-28T07:10:37;7.72;;;3.95;;
63653;SDS011;49809;47.418;19.080;2023-04-28T07:14:21;7.05;;;4.05;;
63653;SDS011;49809;47.418;19.080;2023-04-28T07:18:03;7.62;;;4.45;;
63653;SDS011;49809;47.418;19.080;2023-04-28T07:21:31;10.27;;;4.22;;
63653;SDS011;49809;47.418;19.080;2023-04-28T07:24:51;7.32;;;4.32;;
63653;SDS011;49809;47.418;19.080;2023-04-28T07:28:08;6.50;;;3.92;;
63653;SDS011;49809;47.418;19.080;2023-04-28T07:31:35;12.60;;;4.12;;
63653;SDS011;49809;47.418;19.080;2023-04-28T07:34:52;6.90;;;4.12;;
63653;SDS011;49809;47.418;19.080;2023-04-28T07:38:28;5.60;;;3.47;;
63653;SDS011;49809;47.418;19.080;2023-04-28T07:41:46;7.18;;;4.25;;
63653;SDS011;49809;47.418;19.080;2023-04-28T07:45:15;8.25;;;4.10;;
63653;SDS011;49809;47.418;19.080;2023-04-28T07:48:44;8.90;;;4.05;;
63653;SDS011;49809;47.418;19.080;2023-04-28T07:52:04;6.78;;;3.65;;
63653;SDS011;49809;47.418;19.080;2023-04-28T07:55:38;5.97;;;3.65;;
63653;SDS011;49809;47.418;19.080;2023-04-28T07:59:25;7.10;;;4.05;;
63653;SDS011;49809;47.418;19.080;2023-04-28T08:02:46;5.40;;;3.47;;
63653;SDS011;49809;47.418;19.080;2023-04-28T08:06:04;6.00;;;3.87;;
63653;SDS011;49809;47.418;19.080;2023-04-28T08:09:22;8.43;;;4.15;;
63653;SDS011;49809;47.418;19.080;2023-04-28T08:12:29;7.57;;;4.00;;
63653;SDS011;49809;47.418;19.080;2023-04-28T08:15:32;7.60;;;3.80;;
63653;SDS011;49809;47.418;19.080;2023-04-28T08:19:16;6.32;;;3.47;;
63653;SDS011;49809;47.418;19.080;2023-04-28T08:22:47;9.40;;;3.62;;
63653;SDS011;49809;47.418;19.080;2023-04-28T08:25:54;5.70;;;2.65;;
63653;SDS011;49809;47.418;19.080;2023-04-28T08:29:36;5.60;;;3.40;;
63653;SDS011;49809;47.418;19.080;2023-04-28T08:32:57;7.87;;;3.80;;
63653;SDS011;49809;47.418;19.080;2023-04-28T08:36:33;4.30;;;3.10;;
63653;SDS011;49809;47.418;19.080;2023-04-28T08:39:54;5.82;;;3.00;;
63653;SDS011;49809;47.418;19.080;2023-04-28T08:43:35;6.97;;;3.15;;
63653;SDS011;49809;47.418;19.080;2023-04-28T08:47:16;3.53;;;2.97;;
63653;SDS011;49809;47.418;19.080;2023-04-28T08:51:08;4.00;;;2.28;;
63653;SDS011;49809;47.418;19.080;2023-04-28T08:54:32;4.25;;;2.60;;
63653;SDS011;49809;47.418;19.080;2023-04-28T08:58:02;5.03;;;2.47;;
63653;SDS011;49809;47.418;19.080;2023-04-28T09:01:23;4.37;;;2.20;;
63653;SDS011;49809;47.418;19.080;2023-04-28T09:04:47;3.67;;;2.30;;
63653;SDS011;49809;47.418;19.080;2023-04-28T09:07:50;5.32;;;2.00;;
63653;SDS011;49809;47.418;19.080;2023-04-28T09:11:04;5.65;;;2.50;;
63653;SDS011;49809;47.418;19.080;2023-04-28T09:14:15;3.60;;;1.90;;
63653;SDS011;49809;47.418;19.080;2023-04-28T09:17:23;2.72;;;1.60;;
63653;SDS011;49809;47.418;19.080;2023-04-28T09:20:28;9.77;;;2.20;;
63653;SDS011;49809;47.418;19.080;2023-04-28T09:23:33;3.42;;;1.90;;
63653;SDS011;49809;47.418;19.080;2023-04-28T09:27:03;5.28;;;2.60;;
63653;SDS011;49809;47.418;19.080;2023-04-28T09:30:06;5.40;;;2.45;;
63653;SDS011;49809;47.418;19.080;2023-04-28T09:33:27;4.43;;;2.78;;
63653;SDS011;49809;47.418;19.080;2023-04-28T09:36:53;5.40;;;2.57;;
63653;SDS011;49809;47.418;19.080;2023-04-28T09:40:03;7.20;;;2.30;;
63653;SDS011;49809;47.418;19.080;2023-04-28T09:43:21;4.32;;;2.60;;
63653;SDS011;49809;47.418;19.080;2023-04-28T09:46:30;3.28;;;2.50;;
63653;SDS011;49809;47.418;19.080;2023-04-28T09:49:54;4.15;;;2.20;;
63653;SDS011;49809;47.418;19.080;2023-04-28T09:52:59;3.72;;;2.00;;
63653;SDS011;49809;47.418;19.080;2023-04-28T09:56:26;3.25;;;2.10;;
63653;SDS011;49809;47.418;19.080;2023-04-28T09:59:52;6.65;;;2.42;;
63653;SDS011;49809;47.418;19.080;2023-04-28T10:03:25;2.60;;;1.67;;
63653;SDS011;49809;47.418;19.080;2023-04-28T10:07:10;3.33;;;1.90;;
63653;SDS011;49809;47.418;19.080;2023-04-28T10:10:56;3.33;;;1.70;;
63653;SDS011;49809;47.418;19.080;2023-04-28T10:14:06;2.95;;;1.70;;
63653;SDS011;49809;47.418;19.080;2023-04-28T10:17:30;3.30;;;2.10;;
63653;SDS011;49809;47.418;19.080;2023-04-28T10:20:34;2.92;;;1.73;;
63653;SDS011;49809;47.418;19.080;2023-04-28T10:24:02;2.22;;;2.00;;
63653;SDS011;49809;47.418;19.080;2023-04-28T10:27:44;3.80;;;2.12;;
63653;SDS011;49809;47.418;19.080;2023-04-28T10:34:20;2.60;;;1.75;;
63653;SDS011;49809;47.418;19.080;2023-04-28T10:41:30;2.80;;;1.80;;
63653;SDS011;49809;47.418;19.080;2023-04-28T10:49:01;3.95;;;1.85;;
63653;SDS011;49809;47.418;19.080;2023-04-28T10:52:39;4.03;;;2.22;;
63653;SDS011;49809;47.418;19.080;2023-04-28T10:55:46;2.15;;;1.77;;
63653;SDS011;49809;47.418;19.080;2023-04-28T10:59:28;2.35;;;1.80;;
63653;SDS011;49809;47.418;19.080;2023-04-28T11:02:35;4.03;;;2.20;;
63653;SDS011;49809;47.418;19.080;2023-04-28T11:06:29;2.87;;;1.92;;
63653;SDS011;49809;47.418;19.080;2023-04-28T11:09:48;4.90;;;2.00;;
63653;SDS011;49809;47.418;19.080;2023-04-28T11:13:27;2.87;;;1.90;;
63653;SDS011;49809;47.418;19.080;2023-04-28T11:16:47;4.28;;;1.55;;
63653;SDS011;49809;47.418;19.080;2023-04-28T11:20:14;3.25;;;1.87;;
63653;SDS011;49809;47.418;19.080;2023-04-28T11:23:21;3.30;;;1.70;;
63653;SDS011;49809;47.418;19.080;2023-04-28T11:26:45;2.42;;;1.77;;
63653;SDS011;49809;47.418;19.080;2023-04-28T11:29:59;3.67;;;1.80;;
63653;SDS011;49809;47.418;19.080;2023-04-28T11:33:23;3.05;;;1.77;;
63653;SDS011;49809;47.418;19.080;2023-04-28T11:36:34;4.80;;;1.80;;
63653;SDS011;49809;47.418;19.080;2023-04-28T11:39:41;3.60;;;1.85;;
63653;SDS011;49809;47.418;19.080;2023-04-28T11:42:53;2.97;;;1.80;;
63653;SDS011;49809;47.418;19.080;2023-04-28T11:46:04;2.67;;;1.75;;
63653;SDS011;49809;47.418;19.080;2023-04-28T11:49:45;2.20;;;2.00;;
63653;SDS011;49809;47.418;19.080;2023-04-28T11:53:17;3.50;;;1.90;;
63653;SDS011;49809;47.418;19.080;2023-04-28T11:56:43;3.57;;;1.90;;
63653;SDS011;49809;47.418;19.080;2023-04-28T12:00:14;3.67;;;2.42;;
63653;SDS011;49809;47.418;19.080;2023-04-28T12:03:44;3.30;;;2.30;;
63653;SDS011;49809;47.418;19.080;2023-04-28T12:07:21;5.03;;;2.03;;
63653;SDS011;49809;47.418;19.080;2023-04-28T12:11:10;4.62;;;2.00;;
63653;SDS011;49809;47.418;19.080;2023-04-28T12:14:21;4.00;;;1.83;;
63653;SDS011;49809;47.418;19.080;2023-04-28T12:17:46;3.60;;;2.00;;
63653;SDS011;49809;47.418;19.080;2023-04-28T12:20:51;3.70;;;2.30;;
63653;SDS011;49809;47.418;19.080;2023-04-28T12:24:32;5.68;;;1.98;;
63653;SDS011;49809;47.418;19.080;2023-04-28T12:31:50;5.10;;;2.20;;
63653;SDS011;49809;47.418;19.080;2023-04-28T12:35:14;3.72;;;1.80;;
63653;SDS011;49809;47.418;19.080;2023-04-28T12:38:46;3.72;;;1.80;;
63653;SDS011;49809;47.418;19.080;2023-04-28T12:42:10;2.22;;;1.50;;
63653;SDS011;49809;47.418;19.080;2023-04-28T12:45:58;1.87;;;1.65;;
63653;SDS011;49809;47.418;19.080;2023-04-28T12:49:19;3.35;;;1.95;;
63653;SDS011;49809;47.418;19.080;2023-04-28T12:53:05;3.42;;;1.62;;
63653;SDS011;49809;47.418;19.080;2023-04-28T12:56:34;4.75;;;1.75;;
63653;SDS011;49809;47.418;19.080;2023-04-28T12:59:38;2.87;;;1.65;;
63653;SDS011;49809;47.418;19.080;2023-04-28T13:02:55;5.28;;;1.80;;
63653;SDS011;49809;47.418;19.080;2023-04-28T13:06:35;6.10;;;1.70;;
63653;SDS011;49809;47.418;19.080;2023-04-28T13:10:18;2.25;;;1.50;;
63653;SDS011;49809;47.418;19.080;2023-04-28T13:14:06;3.92;;;1.48;;
63653;SDS011;49809;47.418;19.080;2023-04-28T13:17:24;4.10;;;1.80;;
63653;SDS011;49809;47.418;19.080;2023-04-28T13:20:29;4.50;;;1.90;;
63653;SDS011;49809;47.418;19.080;2023-04-28T13:24:11;3.70;;;1.67;;
63653;SDS011;49809;47.418;19.080;2023-04-28T13:28:00;3.03;;;1.67;;
63653;SDS011;49809;47.418;19.080;2023-04-28T13:31:30;5.25;;;1.65;;
63653;SDS011;49809;47.418;19.080;2023-04-28T13:34:54;3.22;;;1.83;;
63653;SDS011;49809;47.418;19.080;2023-04-28T13:38:20;3.40;;;1.55;;
63653;SDS011;49809;47.418;19.080;2023-04-28T13:45:35;2.45;;;1.48;;
63653;SDS011;49809;47.418;19.080;2023-04-28T13:49:02;3.58;;;1.67;;
63653;SDS011;49809;47.418;19.080;2023-04-28T13:52:07;2.90;;;1.67;;
63653;SDS011;49809;47.418;19.080;2023-04-28T13:55:11;3.08;;;1.67;;
63653;SDS011;49809;47.418;19.080;2023-04-28T13:58:30;2.37;;;1.55;;
63653;SDS011;49809;47.418;19.080;2023-04-28T14:02:19;4.70;;;1.80;;
63653;SDS011;49809;47.418;19.080;2023-04-28T14:05:37;4.25;;;1.92;;
63653;SDS011;49809;47.418;19.080;2023-04-28T14:09:08;3.70;;;2.00;;
63653;SDS011;49809;47.418;19.080;2023-04-28T14:12:55;2.47;;;1.43;;
63653;SDS011;49809;47.418;19.080;2023-04-28T14:16:19;5.32;;;1.55;;
63653;SDS011;49809;47.418;19.080;2023-04-28T14:20:04;2.55;;;1.65;;
63653;SDS011;49809;47.418;19.080;2023-04-28T14:23:09;4.77;;;1.77;;
63653;SDS011;49809;47.418;19.080;2023-04-28T14:26:29;3.10;;;1.70;;
63653;SDS011;49809;47.418;19.080;2023-04-28T14:29:47;4.07;;;1.92;;
63653;SDS011;49809;47.418;19.080;2023-04-28T14:33:17;2.55;;;1.50;;
63653;SDS011;49809;47.418;19.080;2023-04-28T14:36:34;2.97;;;1.45;;
63653;SDS011;49809;47.418;19.080;2023-04-28T14:40:11;1.53;;;1.30;;
63653;SDS011;49809;47.418;19.080;2023-04-28T14:43:35;2.05;;;1.42;;
63653;SDS011;49809;47.418;19.080;2023-04-28T14:46:42;1.80;;;1.35;;
63653;SDS011;49809;47.418;19.080;2023-04-28T14:49:57;3.28;;;1.60;;
63653;SDS011;49809;47.418;19.080;2023-04-28T14:53:45;3.53;;;1.58;;
63653;SDS011;49809;47.418;19.080;2023-04-28T14:56:49;2.35;;;1.75;;
63653;SDS011;49809;47.418;19.080;2023-04-28T15:00:12;3.72;;;1.70;;
63653;SDS011;49809;47.418;19.080;2023-04-28T15:03:50;2.83;;;1.62;;
63653;SDS011;49809;47.418;19.080;2023-04-28T15:07:08;2.78;;;1.73;;
63653;SDS011;49809;47.418;19.080;2023-04-28T15:10:23;3.37;;;1.80;;
63653;SDS011;49809;47.418;19.080;2023-04-28T15:13:56;5.82;;;1.48;;
63653;SDS011;49809;47.418;19.080;2023-04-28T15:17:27;2.08;;;1.58;;
63653;SDS011;49809;47.418;19.080;2023-04-28T15:21:02;2.05;;;1.25;;
63653;SDS011;49809;47.418;19.080;2023-04-28T15:24:43;3.15;;;1.90;;
63653;SDS011;49809;47.418;19.080;2023-04-28T15:27:46;5.07;;;1.85;;
63653;SDS011;49809;47.418;19.080;2023-04-28T15:31:18;3.42;;;1.80;;
63653;SDS011;49809;47.418;19.080;2023-04-28T15:34:49;3.87;;;1.80;;
63653;SDS011;49809;47.418;19.080;2023-04-28T15:38:26;2.28;;;1.73;;
63653;SDS011;49809;47.418;19.080;2023-04-28T15:41:47;4.82;;;2.12;;
63653;SDS011;49809;47.418;19.080;2023-04-28T15:45:06;2.37;;;1.58;;
63653;SDS011;49809;47.418;19.080;2023-04-28T15:52:02;3.15;;;2.00;;
63653;SDS011;49809;47.418;19.080;2023-04-28T15:55:39;2.83;;;1.65;;
63653;SDS011;49809;47.418;19.080;2023-04-28T15:59:17;2.95;;;1.70;;
63653;SDS011;49809;47.418;19.080;2023-04-28T16:03:25;3.75;;;2.00;;
63653;SDS011;49809;47.418;19.080;2023-04-28T16:07:10;2.78;;;1.90;;
63653;SDS011;49809;47.418;19.080;2023-04-28T16:14:16;6.05;;;2.50;;
63653;SDS011;49809;47.418;19.080;2023-04-28T16:17:53;5.12;;;2.20;;
63653;SDS011;49809;47.418;19.080;2023-04-28T16:21:29;3.75;;;1.98;;
63653;SDS011;49809;47.418;19.080;2023-04-28T16:25:11;4.97;;;2.33;;
63653;SDS011;49809;47.418;19.080;2023-04-28T16:28:34;4.68;;;2.45;;
63653;SDS011;49809;47.418;19.080;2023-04-28T16:32:01;3.28;;;2.03;;
63653;SDS011;49809;47.418;19.080;2023-04-28T16:35:20;5.30;;;2.17;;
63653;SDS011;49809;47.418;19.080;2023-04-28T16:39:00;3.25;;;2.00;;
63653;SDS011;49809;47.418;19.080;2023-04-28T16:42:37;3.85;;;2.17;;
63653;SDS011;49809;47.418;19.080;2023-04-28T16:45:55;5.95;;;2.20;;
63653;SDS011;49809;47.418;19.080;2023-04-28T16:49:29;4.70;;;2.30;;
63653;SDS011;49809;47.418;19.080;2023-04-28T16:53:03;5.47;;;2.15;;
63653;SDS011;49809;47.418;19.080;2023-04-28T16:56:22;9.57;;;2.80;;
63653;SDS011;49809;47.418;19.080;2023-04-28T16:59:57;5.35;;;2.83;;
63653;SDS011;49809;47.418;19.080;2023-04-28T17:03:31;6.10;;;2.50;;
63653;SDS011;49809;47.418;19.080;2023-04-28T17:06:51;3.33;;;2.17;;
63653;SDS011;49809;47.418;19.080;2023-04-28T17:10:12;3.20;;;2.15;;
63653;SDS011;49809;47.418;19.080;2023-04-28T17:13:43;4.25;;;2.70;;
63653;SDS011;49809;47.418;19.080;2023-04-28T17:17:17;4.78;;;2.30;;
63653;SDS011;49809;47.418;19.080;2023-04-28T17:24:15;5.37;;;3.10;;
63653;SDS011;49809;47.418;19.080;2023-04-28T17:27:54;6.55;;;3.33;;
63653;SDS011;49809;47.418;19.080;2023-04-28T17:31:12;10.02;;;3.97;;
63653;SDS011;49809;47.418;19.080;2023-04-28T17:34:50;4.75;;;3.12;;
63653;SDS011;49809;47.418;19.080;2023-04-28T17:38:31;4.70;;;2.78;;
63653;SDS011;49809;47.418;19.080;2023-04-28T17:42:03;5.15;;;2.33;;
63653;SDS011;49809;47.418;19.080;2023-04-28T17:45:25;6.70;;;2.80;;
63653;SDS011;49809;47.418;19.080;2023-04-28T17:49:01;6.12;;;2.92;;
63653;SDS011;49809;47.418;19.080;2023-04-28T17:52:36;5.75;;;2.65;;
63653;SDS011;49809;47.418;19.080;2023-04-28T17:56:14;7.45;;;3.08;;
63653;SDS011;49809;47.418;19.080;2023-04-28T17:59:47;6.75;;;3.00;;
63653;SDS011;49809;47.418;19.080;2023-04-28T18:03:13;4.43;;;2.65;;
63653;SDS011;49809;47.418;19.080;2023-04-28T18:06:47;9.15;;;4.22;;
63653;SDS011;49809;47.418;19.080;2023-04-28T18:10:19;7.72;;;3.37;;
63653;SDS011;49809;47.418;19.080;2023-04-28T18:21:11;5.25;;;2.97;;
63653;SDS011;49809;47.418;19.080;2023-04-28T18:35:32;5.95;;;2.92;;
63653;SDS011;49809;47.418;19.080;2023-04-28T18:39:08;5.22;;;3.00;;
63653;SDS011;49809;47.418;19.080;2023-04-28T18:42:44;4.87;;;3.37;;
63653;SDS011;49809;47.418;19.080;2023-04-28T18:46:27;8.63;;;4.00;;
63653;SDS011;49809;47.418;19.080;2023-04-28T18:50:21;6.95;;;4.22;;
63653;SDS011;49809;47.418;19.080;2023-04-28T18:53:57;7.43;;;4.05;;
63653;SDS011;49809;47.418;19.080;2023-04-28T18:57:35;5.72;;;4.07;;
63653;SDS011;49809;47.418;19.080;2023-04-28T19:01:16;7.62;;;3.85;;
63653;SDS011;49809;47.418;19.080;2023-04-28T19:05:07;9.23;;;4.75;;
63653;SDS011;49809;47.418;19.080;2023-04-28T19:08:48;14.10;;;7.03;;
63653;SDS011;49809;47.418;19.080;2023-04-28T19:20:13;12.43;;;6.78;;
63653;SDS011;49809;47.418;19.080;2023-04-28T19:23:36;12.20;;;5.82;;
63653;SDS011;49809;47.418;19.080;2023-04-28T19:27:35;9.73;;;4.47;;
63653;SDS011;49809;47.418;19.080;2023-04-28T19:31:08;7.78;;;4.40;;
63653;SDS011;49809;47.418;19.080;2023-04-28T19:34:36;6.47;;;4.25;;
63653;SDS011;49809;47.418;19.080;2023-04-28T19:38:27;6.55;;;3.92;;
63653;SDS011;49809;47.418;19.080;2023-04-28T19:41:48;8.18;;;4.62;;
63653;SDS011;49809;47.418;19.080;2023-04-28T19:49:51;7.95;;;5.20;;
63653;SDS011;49809;47.418;19.080;2023-04-28T19:53:13;8.57;;;5.20;;
63653;SDS011;49809;47.418;19.080;2023-04-28T19:56:48;10.25;;;5.10;;
63653;SDS011;49809;47.418;19.080;2023-04-28T20:00:14;11.20;;;5.30;;
63653;SDS011;49809;47.418;19.080;2023-04-28T20:07:55;8.60;;;5.15;;
63653;SDS011;49809;47.418;19.080;2023-04-28T20:11:37;11.48;;;5.55;;
63653;SDS011;49809;47.418;19.080;2023-04-28T20:15:33;12.10;;;6.00;;
63653;SDS011;49809;47.418;19.080;2023-04-28T20:19:17;9.63;;;6.55;;
63653;SDS011;49809;47.418;19.080;2023-04-28T20:27:06;24.15;;;10.52;;
63653;SDS011;49809;47.418;19.080;2023-04-28T20:30:40;26.85;;;11.77;;
63653;SDS011;49809;47.418;19.080;2023-04-28T20:34:26;41.95;;;14.73;;
63653;SDS011;49809;47.418;19.080;2023-04-28T20:38:04;47.22;;;17.20;;
63653;SDS011;49809;47.418;19.080;2023-04-28T20:41:50;61.60;;;22.85;;
63653;SDS011;49809;47.418;19.080;2023-04-28T20:45:15;63.60;;;25.05;;
63653;SDS011;49809;47.418;19.080;2023-04-28T20:49:02;58.08;;;21.00;;
63653;SDS011;49809;47.418;19.080;2023-04-28T20:52:25;44.45;;;16.80;;
63653;SDS011;49809;47.418;19.080;2023-04-28T20:56:05;31.92;;;12.95;;
63653;SDS011;49809;47.418;19.080;2023-04-28T20:59:50;32.77;;;12.33;;
63653;SDS011;49809;47.418;19.080;2023-04-28T21:03:26;29.90;;;10.93;;
63653;SDS011;49809;47.418;19.080;2023-04-28T21:06:56;25.05;;;9.88;;
63653;SDS011;49809;47.418;19.080;2023-04-28T21:10:32;18.45;;;8.02;;
63653;SDS011;49809;47.418;19.080;2023-04-28T21:14:08;12.98;;;7.22;;
63653;SDS011;49809;47.418;19.080;2023-04-28T21:17:58;9.40;;;5.15;;
63653;SDS011;49809;47.418;19.080;2023-04-28T21:21:33;12.02;;;5.37;;
63653;SDS011;49809;47.418;19.080;2023-04-28T21:29:30;9.88;;;5.05;;
63653;SDS011;49809;47.418;19.080;2023-04-28T21:33:23;8.13;;;4.53;;
63653;SDS011;49809;47.418;19.080;2023-04-28T21:36:47;7.40;;;4.40;;
63653;SDS011;49809;47.418;19.080;2023-04-28T21:40:23;10.98;;;4.55;;
63653;SDS011;49809;47.418;19.080;2023-04-28T21:44:14;13.18;;;4.97;;
63653;SDS011;49809;47.418;19.080;2023-04-28T21:47:43;7.47;;;3.70;;
63653;SDS011;49809;47.418;19.080;2023-04-28T21:51:19;7.43;;;4.25;;
63653;SDS011;49809;47.418;19.080;2023-04-28T21:54:58;5.55;;;3.80;;
63653;SDS011;49809;47.418;19.080;2023-04-28T21:58:49;5.10;;;3.78;;
63653;SDS011;49809;47.418;19.080;2023-04-28T22:02:15;6.68;;;4.05;;